Wind From: 13-12-2017 10:08 Until: 14-12-2017 06:00 warning for: Wind Level: Yellow info button

Although rather usual in this region, locally or potentially dangerous phenomena are expected. (such as local winds, summer thunderstorms, rising streams or high waves) Be aware and pay attention to the latest weather updates, especially if you carry out activities exposed to weather or close to a stream or shoreline. 


Meteo18 Weather Cam more information Meteo18 Weather Cam


Thunder radar more information blitzortung!


Rain radar more information rain snow radar


Visit our other weather sites:

Template documentation
and downloads

And another site



Weather Underground History page Text

Daily Summary for January 10, 2017 Units:  Metric    English   Both
« Previous Day
Next Day »
Daily Weekly Monthly Yearly Custom
  High: Low: Average:
Temperature: 6.3 °C 3.6 °C 5.1 °C
Dew Point: 6.0 °C 3.0 °C 4.3 °C
Humidity: 98 % 88 % 95 %
Wind Speed: 17.7 km/h 0.0 km/h 5.5 km/h
Wind Gust: 29.0 km/h - -
Wind:- - West
Pressure: 1018.2 hPa 1011.7 hPa -
Precipitation: 5.6 mm    
Historical Graphs
 
 
Tabular Data for January 10, 2017
Time Temperature Dew Point Pressure Wind Wind Speed Wind Gust Humidity Rainfall Rate (Hourly)
00:02 5.5 °C 5.2 °C 1018.2 hPa SW 3.2 km/h 16.1 km/h 98 % 0.5 mm
00:12 5.6 °C 5.3 °C 1017.8 hPa WSW 11.3 km/h 16.1 km/h 98 % 0.5 mm
00:17 5.6 °C 5.3 °C 1017.8 hPa WSW 9.7 km/h 16.1 km/h 98 % 0.8 mm
00:22 5.6 °C 5.3 °C 1017.8 hPa SW 11.3 km/h 16.1 km/h 98 % 0.5 mm
00:27 5.6 °C 5.3 °C 1017.8 hPa SW 11.3 km/h 17.7 km/h 98 % 0.5 mm
00:32 5.6 °C 5.3 °C 1017.5 hPa SW 9.7 km/h 17.7 km/h 98 % 0.5 mm
00:42 5.6 °C 5.3 °C 1017.2 hPa WSW 12.9 km/h 16.1 km/h 98 % 0.5 mm
00:47 5.6 °C 5.3 °C 1017.2 hPa SSW 9.7 km/h 16.1 km/h 98 % 0.5 mm
00:52 5.6 °C 5.3 °C 1016.8 hPa SW 12.9 km/h 16.1 km/h 98 % 1.0 mm
00:57 5.7 °C 5.4 °C 1016.8 hPa SW 12.9 km/h 16.1 km/h 98 % 1.0 mm
01:02 5.6 °C 5.3 °C 1016.8 hPa SSW 9.7 km/h 16.1 km/h 98 % 0.8 mm
01:07 5.6 °C 5.3 °C 1016.5 hPa SSW 11.3 km/h 17.7 km/h 98 % 1.0 mm
01:12 5.6 °C 5.3 °C 1016.5 hPa SW 12.9 km/h 17.7 km/h 98 % 1.0 mm
01:17 5.6 °C 5.3 °C 1016.5 hPa SSW 17.7 km/h 20.9 km/h 98 % 0.8 mm
01:22 5.7 °C 5.4 °C 1016.1 hPa SSW 11.3 km/h 20.9 km/h 98 % 0.8 mm
01:27 5.7 °C 5.4 °C 1016.1 hPa SW 9.7 km/h 20.9 km/h 98 % 1.0 mm
01:32 5.7 °C 5.4 °C 1016.1 hPa WSW 11.3 km/h 20.9 km/h 98 % 0.8 mm
01:37 5.7 °C 5.4 °C 1015.8 hPa SSW 9.7 km/h 20.9 km/h 98 % 0.8 mm
01:42 5.7 °C 5.4 °C 1015.8 hPa SW 14.5 km/h 19.3 km/h 98 % 1.0 mm
01:47 5.8 °C 5.5 °C 1015.5 hPa SW 16.1 km/h 22.5 km/h 98 % 0.8 mm
01:52 5.8 °C 5.5 °C 1015.5 hPa SW 8.0 km/h 22.5 km/h 98 % 0.5 mm
01:57 5.8 °C 5.5 °C 1015.1 hPa SW 9.7 km/h 22.5 km/h 98 % 0.5 mm
02:02 5.8 °C 5.5 °C 1015.1 hPa SW 12.9 km/h 20.9 km/h 98 % 0.5 mm
02:07 5.8 °C 5.5 °C 1015.1 hPa SSW 6.4 km/h 20.9 km/h 98 % 0.5 mm
02:12 5.8 °C 5.5 °C 1014.8 hPa SW 14.5 km/h 19.3 km/h 98 % 0.5 mm
02:17 5.9 °C 5.6 °C 1014.8 hPa SSW 9.7 km/h 19.3 km/h 98 % 0.5 mm
02:22 5.9 °C 5.6 °C 1014.4 hPa SW 9.7 km/h 19.3 km/h 98 % 0.5 mm
02:27 5.9 °C 5.6 °C 1014.4 hPa SW 12.9 km/h 19.3 km/h 98 % 0.5 mm
02:32 5.8 °C 5.5 °C 1014.4 hPa SSW 14.5 km/h 19.3 km/h 98 % 0.5 mm
02:37 5.8 °C 5.5 °C 1014.4 hPa SW 14.5 km/h 17.7 km/h 98 % 0.8 mm
02:42 5.8 °C 5.5 °C 1014.1 hPa SW 11.3 km/h 17.7 km/h 98 % 0.5 mm
02:47 5.7 °C 5.4 °C 1014.1 hPa SW 11.3 km/h 17.7 km/h 98 % 0.5 mm
02:52 5.7 °C 5.4 °C 1013.8 hPa SSW 11.3 km/h 20.9 km/h 98 % 0.8 mm
02:57 5.7 °C 5.4 °C 1013.8 hPa SW 6.4 km/h 20.9 km/h 98 % 0.8 mm
03:02 5.7 °C 5.4 °C 1013.8 hPa SW 8.0 km/h 19.3 km/h 98 % 0.8 mm
03:07 5.7 °C 5.4 °C 1013.8 hPa SW 14.5 km/h 17.7 km/h 98 % 1.0 mm
03:12 5.7 °C 5.4 °C 1013.8 hPa SSW 4.8 km/h 17.7 km/h 98 % 1.3 mm
03:17 5.8 °C 5.5 °C 1013.4 hPa SW 9.7 km/h 17.7 km/h 98 % 1.5 mm
03:22 5.9 °C 5.6 °C 1013.4 hPa SSW 8.0 km/h 17.7 km/h 98 % 1.5 mm
03:27 5.9 °C 5.6 °C 1013.1 hPa SW 11.3 km/h 19.3 km/h 98 % 1.5 mm
03:32 5.9 °C 5.6 °C 1013.1 hPa SSW 8.0 km/h 19.3 km/h 98 % 1.3 mm
03:37 5.9 °C 5.6 °C 1013.1 hPa SSW 6.4 km/h 17.7 km/h 98 % 1.5 mm
03:42 5.9 °C 5.6 °C 1013.1 hPa SW 9.7 km/h 16.1 km/h 98 % 1.5 mm
03:47 5.9 °C 5.6 °C 1012.8 hPa West 8.0 km/h 16.1 km/h 98 % 1.3 mm
03:52 5.9 °C 5.6 °C 1012.8 hPa SW 3.2 km/h 16.1 km/h 98 % 1.3 mm
03:57 6.0 °C 5.7 °C 1012.8 hPa SW 3.2 km/h 16.1 km/h 98 % 1.3 mm
04:07 6.0 °C 5.7 °C 1012.8 hPa SSW 3.2 km/h 11.3 km/h 98 % 0.8 mm
04:12 6.1 °C 5.8 °C 1012.4 hPa SW 3.2 km/h 11.3 km/h 98 % 0.8 mm
04:17 6.1 °C 5.8 °C 1012.4 hPa SW 3.2 km/h 11.3 km/h 98 % 0.8 mm
04:22 6.1 °C 5.8 °C 1012.4 hPa WSW 6.4 km/h 9.7 km/h 98 % 0.8 mm
04:27 6.2 °C 5.9 °C 1012.4 hPa WSW 3.2 km/h 8.0 km/h 98 % 0.5 mm
04:32 6.2 °C 5.9 °C 1012.4 hPa WSW 3.2 km/h 8.0 km/h 98 % 0.5 mm
04:37 6.2 °C 5.9 °C 1012.4 hPa West 4.8 km/h 8.0 km/h 98 % 0.5 mm
04:47 6.3 °C 6.0 °C 1012.4 hPa WSW 6.4 km/h 9.7 km/h 98 % 0.8 mm
04:52 6.3 °C 6.0 °C 1012.8 hPa NNW 9.7 km/h 19.3 km/h 98 % 1.0 mm
04:57 5.9 °C 5.5 °C 1012.8 hPa NNW 9.7 km/h 29.0 km/h 97 % 1.0 mm
05:02 5.7 °C 5.3 °C 1012.8 hPa WNW 4.8 km/h 29.0 km/h 97 % 1.0 mm
05:12 5.4 °C 4.8 °C 1012.4 hPa NW 9.7 km/h 22.5 km/h 96 % 0.8 mm
05:17 5.3 °C 4.7 °C 1012.4 hPa NNW 6.4 km/h 22.5 km/h 96 % 0.8 mm
05:22 5.3 °C 4.7 °C 1012.4 hPa NW 3.2 km/h 17.7 km/h 96 % 0.8 mm
05:27 5.2 °C 4.6 °C 1012.1 hPa NNW 6.4 km/h 12.9 km/h 96 % 0.8 mm
05:32 5.2 °C 4.6 °C 1012.1 hPa North 3.2 km/h 12.9 km/h 96 % 0.8 mm
05:37 5.1 °C 4.5 °C 1012.1 hPa Calm   9.7 km/h 96 % 0.5 mm
05:42 5.1 °C 4.5 °C 1012.1 hPa NNW 1.6 km/h 8.0 km/h 96 % 0.5 mm
05:47 5.1 °C 4.5 °C 1011.7 hPa Calm   4.8 km/h 96 % 0.5 mm
05:52 5.0 °C 4.4 °C 1011.7 hPa NNW 1.6 km/h 4.8 km/h 96 % 0.0 mm
05:57 5.0 °C 4.4 °C 1011.7 hPa NNW 1.6 km/h 4.8 km/h 96 % 0.0 mm
06:02 4.9 °C 4.3 °C 1012.1 hPa North 4.8 km/h 4.8 km/h 96 % 0.0 mm
06:07 4.9 °C 4.3 °C 1012.1 hPa NNW 1.6 km/h 8.0 km/h 96 % 0.0 mm
06:12 4.8 °C 4.2 °C 1012.1 hPa NNE 1.6 km/h 8.0 km/h 96 % 0.0 mm
06:17 4.8 °C 4.2 °C 1012.1 hPa North 1.6 km/h 8.0 km/h 96 % 0.0 mm
06:22 4.8 °C 4.2 °C 1012.1 hPa NW 3.2 km/h 8.0 km/h 96 % 0.0 mm
06:27 4.7 °C 4.1 °C 1012.1 hPa NNW 3.2 km/h 8.0 km/h 96 % 0.0 mm
06:32 4.6 °C 4.0 °C 1012.1 hPa NNW 3.2 km/h 8.0 km/h 96 % 0.0 mm
06:37 4.4 °C 3.8 °C 1012.1 hPa North 1.6 km/h 8.0 km/h 96 % 0.0 mm
06:42 4.4 °C 3.8 °C 1012.1 hPa North 1.6 km/h 8.0 km/h 96 % 0.0 mm
06:47 4.4 °C 3.8 °C 1012.1 hPa NW 1.6 km/h 4.8 km/h 96 % 0.0 mm
06:52 4.3 °C 3.7 °C 1012.4 hPa NNW 3.2 km/h 3.2 km/h 96 % 0.0 mm
06:57 4.2 °C 3.6 °C 1012.4 hPa North 1.6 km/h 3.2 km/h 96 % 0.0 mm
07:02 4.2 °C 3.6 °C 1012.4 hPa NNW 1.6 km/h 3.2 km/h 96 % 0.0 mm
07:07 4.2 °C 3.6 °C 1012.4 hPa Calm   4.8 km/h 96 % 0.0 mm
07:12 4.2 °C 3.6 °C 1012.4 hPa NW 1.6 km/h 4.8 km/h 96 % 0.0 mm
07:17 4.2 °C 3.6 °C 1012.8 hPa NW 1.6 km/h 3.2 km/h 96 % 0.0 mm
07:22 4.2 °C 3.6 °C 1012.8 hPa NW 1.6 km/h 6.4 km/h 96 % 0.0 mm
07:27 4.2 °C 3.6 °C 1012.8 hPa Calm   6.4 km/h 96 % 0.0 mm
07:32 4.1 °C 3.5 °C 1012.8 hPa NNW 1.6 km/h 6.4 km/h 96 % 0.0 mm
07:37 4.1 °C 3.7 °C 1012.4 hPa WNW 1.6 km/h 6.4 km/h 97 % 0.0 mm
07:42 4.0 °C 3.6 °C 1012.8 hPa NW 3.2 km/h 6.4 km/h 97 % 0.0 mm
07:47 4.0 °C 3.6 °C 1012.8 hPa NW 3.2 km/h 6.4 km/h 97 % 0.0 mm
07:52 4.1 °C 3.7 °C 1012.8 hPa NW 3.2 km/h 6.4 km/h 97 % 0.0 mm
07:57 4.0 °C 3.6 °C 1012.8 hPa WNW 4.8 km/h 6.4 km/h 97 % 0.0 mm
08:02 4.0 °C 3.6 °C 1012.8 hPa WNW 1.6 km/h 6.4 km/h 97 % 0.0 mm
08:07 4.0 °C 3.6 °C 1012.8 hPa WNW 4.8 km/h 9.7 km/h 97 % 0.0 mm
08:12 4.1 °C 3.7 °C 1012.4 hPa NW 4.8 km/h 9.7 km/h 97 % 0.0 mm
08:17 4.1 °C 3.7 °C 1012.8 hPa WNW 4.8 km/h 9.7 km/h 97 % 0.0 mm
08:22 4.1 °C 3.7 °C 1012.8 hPa WNW 8.0 km/h 11.3 km/h 97 % 0.0 mm
08:27 4.1 °C 3.7 °C 1012.4 hPa NW 3.2 km/h 11.3 km/h 97 % 0.0 mm
08:32 4.2 °C 3.8 °C 1012.8 hPa WNW 3.2 km/h 11.3 km/h 97 % 0.0 mm
08:37 4.2 °C 3.8 °C 1012.8 hPa WNW 1.6 km/h 12.9 km/h 97 % 0.0 mm
08:42 4.2 °C 3.6 °C 1012.8 hPa WNW 1.6 km/h 12.9 km/h 96 % 0.0 mm
08:52 4.1 °C 3.5 °C 1012.8 hPa Calm   6.4 km/h 96 % 0.0 mm
08:57 4.1 °C 3.5 °C 1012.8 hPa Calm   6.4 km/h 96 % 0.0 mm
09:02 3.9 °C 3.3 °C 1012.8 hPa West 1.6 km/h 6.4 km/h 96 % 0.0 mm
09:07 3.9 °C 3.3 °C 1012.4 hPa Calm   3.2 km/h 96 % 0.0 mm
09:12 4.0 °C 3.4 °C 1012.8 hPa WNW 1.6 km/h 3.2 km/h 96 % 0.0 mm
09:17 4.2 °C 3.8 °C 1012.8 hPa WNW 1.6 km/h 4.8 km/h 97 % 0.0 mm
09:22 4.4 °C 4.0 °C 1012.8 hPa WNW 3.2 km/h 4.8 km/h 97 % 0.0 mm
09:27 4.6 °C 4.0 °C 1012.8 hPa NW 4.8 km/h 11.3 km/h 96 % 0.0 mm
09:32 4.7 °C 4.1 °C 1012.8 hPa NW 3.2 km/h 11.3 km/h 96 % 0.0 mm
09:37 4.8 °C 4.2 °C 1012.8 hPa WNW 6.4 km/h 11.3 km/h 96 % 0.0 mm
09:42 5.0 °C 4.3 °C 1012.8 hPa West 1.6 km/h 14.5 km/h 95 % 0.0 mm
09:52 5.1 °C 4.4 °C 1012.8 hPa WNW 3.2 km/h 14.5 km/h 95 % 0.0 mm
09:57 5.1 °C 4.4 °C 1012.8 hPa WNW 6.4 km/h 14.5 km/h 95 % 0.0 mm
10:02 5.0 °C 4.3 °C 1012.8 hPa WNW 6.4 km/h 14.5 km/h 95 % 0.0 mm
10:07 4.9 °C 4.2 °C 1012.8 hPa WNW 3.2 km/h 11.3 km/h 95 % 0.0 mm
10:12 4.9 °C 4.2 °C 1012.8 hPa West 3.2 km/h 11.3 km/h 95 % 0.0 mm
10:17 5.0 °C 4.3 °C 1013.1 hPa WNW 1.6 km/h 11.3 km/h 95 % 0.0 mm
10:22 5.2 °C 4.5 °C 1013.1 hPa WNW 8.0 km/h 11.3 km/h 95 % 0.0 mm
10:32 5.6 °C 4.7 °C 1013.4 hPa NW 6.4 km/h 12.9 km/h 94 % 0.0 mm
10:37 5.7 °C 4.8 °C 1013.4 hPa WNW 9.7 km/h 14.5 km/h 94 % 0.0 mm
10:42 5.7 °C 4.7 °C 1013.4 hPa NNW 9.7 km/h 14.5 km/h 93 % 0.0 mm
10:47 5.6 °C 4.6 °C 1013.8 hPa NW 6.4 km/h 19.3 km/h 93 % 0.0 mm
10:52 5.5 °C 4.6 °C 1013.8 hPa NW 6.4 km/h 19.3 km/h 94 % 0.0 mm
10:57 5.5 °C 4.6 °C 1013.4 hPa WNW 4.8 km/h 17.7 km/h 94 % 0.0 mm
11:02 5.5 °C 4.6 °C 1013.4 hPa WNW 3.2 km/h 16.1 km/h 94 % 0.0 mm
11:07 5.5 °C 4.6 °C 1013.4 hPa West 4.8 km/h 12.9 km/h 94 % 0.0 mm
11:17 5.4 °C 4.5 °C 1013.4 hPa NW 4.8 km/h 14.5 km/h 94 % 0.0 mm
11:22 5.4 °C 4.5 °C 1013.8 hPa NNW 4.8 km/h 14.5 km/h 94 % 0.0 mm
11:27 5.4 °C 4.5 °C 1013.8 hPa WNW 14.5 km/h 17.7 km/h 94 % 0.0 mm
11:32 5.3 °C 4.4 °C 1013.8 hPa WNW 9.7 km/h 19.3 km/h 94 % 0.3 mm
11:37 5.3 °C 4.4 °C 1013.8 hPa WNW 1.6 km/h 19.3 km/h 94 % 0.3 mm
11:47 5.3 °C 4.4 °C 1013.4 hPa NW 8.0 km/h 12.9 km/h 94 % 0.3 mm
11:52 5.3 °C 4.4 °C 1013.4 hPa WNW 8.0 km/h 14.5 km/h 94 % 0.3 mm
12:02 5.4 °C 4.5 °C 1013.4 hPa NW 4.8 km/h 12.9 km/h 94 % 0.3 mm
12:07 5.5 °C 4.6 °C 1013.4 hPa WNW 9.7 km/h 12.9 km/h 94 % 0.3 mm
12:17 5.7 °C 4.7 °C 1013.4 hPa WNW 12.9 km/h 12.9 km/h 93 % 0.3 mm
12:22 5.7 °C 4.5 °C 1013.4 hPa WNW 6.4 km/h 19.3 km/h 92 % 0.3 mm
12:27 5.8 °C 4.6 °C 1013.1 hPa WNW 1.6 km/h 19.3 km/h 92 % 0.3 mm
12:37 5.8 °C 4.3 °C 1013.1 hPa NW 8.0 km/h 16.1 km/h 90 % 0.0 mm
12:42 5.8 °C 4.4 °C 1012.8 hPa West 11.3 km/h 16.1 km/h 91 % 0.0 mm
12:47 5.9 °C 4.4 °C 1012.8 hPa WNW 11.3 km/h 19.3 km/h 90 % 0.0 mm
12:52 5.9 °C 4.4 °C 1012.8 hPa WNW 9.7 km/h 19.3 km/h 90 % 0.0 mm
12:57 5.9 °C 4.4 °C 1012.8 hPa WNW 6.4 km/h 19.3 km/h 90 % 0.0 mm
13:02 5.9 °C 4.4 °C 1012.8 hPa NW 6.4 km/h 17.7 km/h 90 % 0.0 mm
13:07 5.9 °C 4.4 °C 1012.8 hPa WSW 1.6 km/h 17.7 km/h 90 % 0.0 mm
13:17 6.0 °C 4.3 °C 1012.8 hPa WNW 4.8 km/h 19.3 km/h 89 % 0.0 mm
13:22 5.8 °C 4.1 °C 1012.8 hPa NNE 11.3 km/h 19.3 km/h 89 % 0.0 mm
13:27 5.7 °C 4.2 °C 1012.8 hPa NW 12.9 km/h 19.3 km/h 90 % 0.3 mm
13:32 5.0 °C 3.5 °C 1012.8 hPa WNW 12.9 km/h 24.1 km/h 90 % 0.5 mm
13:37 4.7 °C 3.4 °C 1012.8 hPa NW 3.2 km/h 24.1 km/h 91 % 0.8 mm
13:42 4.8 °C 3.6 °C 1012.8 hPa NW 6.4 km/h 24.1 km/h 92 % 0.8 mm
13:52 5.2 °C 4.3 °C 1012.8 hPa NNW 11.3 km/h 12.9 km/h 94 % 0.8 mm
14:02 5.4 °C 4.2 °C 1012.8 hPa NW 8.0 km/h 20.9 km/h 92 % 0.8 mm
14:07 5.5 °C 4.3 °C 1012.8 hPa NNW 4.8 km/h 22.5 km/h 92 % 0.8 mm
14:12 5.5 °C 4.3 °C 1012.8 hPa North 1.6 km/h 22.5 km/h 92 % 0.8 mm
14:17 5.5 °C 4.3 °C 1012.8 hPa NW 12.9 km/h 22.5 km/h 92 % 0.8 mm
14:22 5.5 °C 4.3 °C 1012.8 hPa NW 4.8 km/h 25.7 km/h 92 % 0.8 mm
14:27 5.5 °C 4.3 °C 1012.8 hPa WNW 11.3 km/h 25.7 km/h 92 % 0.5 mm
14:32 5.5 °C 4.3 °C 1012.8 hPa WNW 8.0 km/h 25.7 km/h 92 % 0.3 mm
14:37 5.6 °C 4.4 °C 1012.8 hPa WNW 8.0 km/h 17.7 km/h 92 % 0.0 mm
14:42 5.7 °C 4.3 °C 1012.8 hPa WNW 6.4 km/h 20.9 km/h 91 % 0.0 mm
14:47 5.7 °C 4.3 °C 1012.8 hPa WNW 3.2 km/h 20.9 km/h 91 % 0.0 mm
14:52 5.7 °C 4.2 °C 1012.8 hPa WNW 6.4 km/h 20.9 km/h 90 % 0.0 mm
14:57 5.7 °C 4.2 °C 1012.8 hPa NNW 8.0 km/h 17.7 km/h 90 % 0.0 mm
15:02 5.8 °C 4.1 °C 1012.8 hPa NNW 9.7 km/h 19.3 km/h 89 % 0.0 mm
15:07 5.8 °C 4.1 °C 1012.8 hPa WNW 8.0 km/h 19.3 km/h 89 % 0.0 mm
15:12 5.8 °C 4.1 °C 1012.8 hPa NNW 3.2 km/h 19.3 km/h 89 % 0.0 mm
15:17 5.9 °C 4.2 °C 1013.1 hPa NNW 9.7 km/h 17.7 km/h 89 % 0.0 mm
15:22 6.0 °C 4.2 °C 1013.1 hPa North 4.8 km/h 17.7 km/h 88 % 0.0 mm
15:27 6.1 °C 4.3 °C 1013.1 hPa NW 14.5 km/h 17.7 km/h 88 % 0.0 mm
15:32 6.2 °C 4.4 °C 1013.1 hPa NNW 11.3 km/h 19.3 km/h 88 % 0.0 mm
15:37 6.1 °C 4.3 °C 1013.1 hPa NW 6.4 km/h 19.3 km/h 88 % 0.0 mm
15:42 5.9 °C 4.1 °C 1013.1 hPa NNW 8.0 km/h 19.3 km/h 88 % 0.0 mm
15:47 5.9 °C 4.1 °C 1013.1 hPa NNW 4.8 km/h 17.7 km/h 88 % 0.0 mm
15:52 5.9 °C 4.1 °C 1013.1 hPa NW 6.4 km/h 20.9 km/h 88 % 0.0 mm
15:57 6.1 °C 4.4 °C 1013.1 hPa NNW 8.0 km/h 20.9 km/h 89 % 0.0 mm
16:02 6.1 °C 4.3 °C 1013.4 hPa WNW 3.2 km/h 19.3 km/h 88 % 0.0 mm
16:07 6.2 °C 4.4 °C 1013.4 hPa NW 6.4 km/h 19.3 km/h 88 % 0.0 mm
16:12 6.2 °C 4.4 °C 1013.4 hPa NW 12.9 km/h 19.3 km/h 88 % 0.0 mm
16:17 6.2 °C 4.4 °C 1013.4 hPa WNW 8.0 km/h 17.7 km/h 88 % 0.0 mm
16:22 6.2 °C 4.4 °C 1013.4 hPa NW 4.8 km/h 17.7 km/h 88 % 0.0 mm
16:27 6.1 °C 4.3 °C 1013.4 hPa NW 4.8 km/h 17.7 km/h 88 % 0.0 mm
16:32 6.1 °C 4.3 °C 1013.8 hPa WNW 1.6 km/h 17.7 km/h 88 % 0.0 mm
16:37 6.1 °C 4.3 °C 1013.8 hPa North 8.0 km/h 12.9 km/h 88 % 0.0 mm
16:42 5.9 °C 4.1 °C 1013.8 hPa NW 8.0 km/h 12.9 km/h 88 % 0.0 mm
16:52 5.7 °C 4.0 °C 1014.1 hPa North 8.0 km/h 9.7 km/h 89 % 0.0 mm
17:02 5.5 °C 3.8 °C 1014.4 hPa NW 3.2 km/h 11.3 km/h 89 % 0.0 mm
17:07 5.4 °C 3.9 °C 1014.4 hPa NW 1.6 km/h 11.3 km/h 90 % 0.0 mm
17:12 5.3 °C 3.8 °C 1014.4 hPa Calm   8.0 km/h 90 % 0.0 mm
17:52 4.8 °C 3.5 °C 1015.1 hPa Calm   4.8 km/h 91 % 0.0 mm
18:02 4.7 °C 3.4 °C 1015.1 hPa WNW 6.4 km/h 6.4 km/h 91 % 0.0 mm
18:17 4.7 °C 3.5 °C 1015.5 hPa WNW 3.2 km/h 6.4 km/h 92 % 0.0 mm
18:27 4.7 °C 3.5 °C 1015.5 hPa West 3.2 km/h 6.4 km/h 92 % 0.0 mm
18:32 4.7 °C 3.5 °C 1015.5 hPa WNW 4.8 km/h 6.4 km/h 92 % 0.0 mm
18:42 4.6 °C 3.4 °C 1015.5 hPa West 1.6 km/h 6.4 km/h 92 % 0.0 mm
18:52 4.4 °C 3.2 °C 1015.5 hPa WNW 4.8 km/h 6.4 km/h 92 % 0.0 mm
19:02 4.4 °C 3.2 °C 1015.5 hPa WNW 6.4 km/h 8.0 km/h 92 % 0.0 mm
19:12 4.3 °C 3.3 °C 1015.8 hPa WNW 6.4 km/h 9.7 km/h 93 % 0.0 mm
19:22 4.3 °C 3.4 °C 1015.8 hPa WNW 8.0 km/h 8.0 km/h 94 % 0.0 mm
19:27 4.4 °C 3.4 °C 1015.8 hPa WNW 3.2 km/h 9.7 km/h 93 % 0.0 mm
19:32 4.4 °C 3.4 °C 1015.8 hPa WNW 1.6 km/h 9.7 km/h 93 % 0.0 mm
19:42 4.3 °C 3.4 °C 1015.8 hPa WNW 4.8 km/h 4.8 km/h 94 % 0.0 mm
19:47 4.3 °C 3.4 °C 1015.8 hPa NW 1.6 km/h 4.8 km/h 94 % 0.0 mm
19:57 4.3 °C 3.4 °C 1015.8 hPa WNW 3.2 km/h 4.8 km/h 94 % 0.0 mm
20:02 4.2 °C 3.3 °C 1016.1 hPa WNW 1.6 km/h 4.8 km/h 94 % 0.0 mm
20:07 4.2 °C 3.3 °C 1016.1 hPa Calm   4.8 km/h 94 % 0.0 mm
20:17 4.2 °C 3.3 °C 1016.1 hPa WNW 3.2 km/h 4.8 km/h 94 % 0.0 mm
20:27 4.3 °C 3.4 °C 1016.5 hPa West 1.6 km/h 6.4 km/h 94 % 0.0 mm
20:37 4.4 °C 3.5 °C 1016.5 hPa WNW 1.6 km/h 6.4 km/h 94 % 0.0 mm
20:42 4.4 °C 3.5 °C 1016.5 hPa WNW 3.2 km/h 4.8 km/h 94 % 0.0 mm
20:47 4.4 °C 3.5 °C 1016.5 hPa West 1.6 km/h 4.8 km/h 94 % 0.0 mm
20:52 4.4 °C 3.5 °C 1016.5 hPa Calm   4.8 km/h 94 % 0.0 mm
20:57 4.4 °C 3.7 °C 1016.5 hPa Calm   4.8 km/h 95 % 0.0 mm
21:02 4.5 °C 3.8 °C 1016.5 hPa West 1.6 km/h 3.2 km/h 95 % 0.0 mm
21:07 4.6 °C 3.7 °C 1016.5 hPa West 1.6 km/h 3.2 km/h 94 % 0.0 mm
21:17 4.7 °C 4.0 °C 1016.8 hPa NW 3.2 km/h 4.8 km/h 95 % 0.0 mm
21:22 4.7 °C 4.0 °C 1016.8 hPa West 3.2 km/h 4.8 km/h 95 % 0.0 mm
21:27 4.8 °C 4.1 °C 1016.8 hPa WSW 1.6 km/h 4.8 km/h 95 % 0.0 mm
21:32 4.8 °C 4.1 °C 1016.8 hPa WNW 3.2 km/h 4.8 km/h 95 % 0.0 mm
21:37 4.8 °C 4.1 °C 1016.8 hPa WNW 1.6 km/h 6.4 km/h 95 % 0.0 mm
21:47 4.8 °C 4.1 °C 1016.8 hPa WNW 1.6 km/h 6.4 km/h 95 % 0.0 mm
21:52 4.8 °C 4.1 °C 1016.8 hPa WNW 3.2 km/h 6.4 km/h 95 % 0.0 mm
21:57 4.8 °C 4.1 °C 1016.5 hPa WNW 1.6 km/h 6.4 km/h 95 % 0.0 mm
22:02 4.8 °C 4.1 °C 1016.8 hPa Calm   6.4 km/h 95 % 0.0 mm
22:07 4.7 °C 4.0 °C 1016.5 hPa Calm   4.8 km/h 95 % 0.0 mm
22:12 4.7 °C 4.0 °C 1016.8 hPa Calm   1.6 km/h 95 % 0.0 mm
22:17 4.7 °C 4.0 °C 1016.8 hPa Calm     95 % 0.0 mm
22:22 4.7 °C 4.0 °C 1016.8 hPa Calm     95 % 0.0 mm
22:32 4.6 °C 3.9 °C 1017.2 hPa Calm   1.6 km/h 95 % 0.0 mm
22:37 4.6 °C 3.9 °C 1017.2 hPa Calm   1.6 km/h 95 % 0.0 mm
22:42 4.6 °C 3.9 °C 1016.8 hPa Calm   3.2 km/h 95 % 0.0 mm
22:47 4.6 °C 3.9 °C 1017.2 hPa Calm   3.2 km/h 95 % 0.0 mm
22:52 4.4 °C 3.7 °C 1017.2 hPa Calm   3.2 km/h 95 % 0.0 mm
23:02 4.1 °C 3.4 °C 1017.2 hPa Calm   1.6 km/h 95 % 0.0 mm
23:12 3.9 °C 3.2 °C 1017.2 hPa Calm   3.2 km/h 95 % 0.0 mm
23:17 3.7 °C 3.1 °C 1017.2 hPa Calm   3.2 km/h 96 % 0.0 mm
23:27 3.6 °C 3.0 °C 1017.2 hPa Calm   3.2 km/h 96 % 0.0 mm
23:32 3.6 °C 3.2 °C 1017.2 hPa West 3.2 km/h 4.8 km/h 97 % 0.0 mm
23:42 3.8 °C 3.4 °C 1017.2 hPa NW 3.2 km/h 6.4 km/h 97 % 0.0 mm
23:47 3.8 °C 3.2 °C 1017.2 hPa Calm   6.4 km/h 96 % 0.0 mm
23:52 3.8 °C 3.2 °C 1017.5 hPa WNW 1.6 km/h 6.4 km/h 96 % 0.0 mm
23:57 3.8 °C 3.2 °C 1017.5 hPa WNW 1.6 km/h 4.8 km/h 96 % 0.0 mm
Meteo18
Compliments of Weather Underground - 4 mb

Script developed by  Jim McMurry - jmcmurry@mwt.net Adapted for the template by  Wim van der Kuil - Leuven-Template.eu

You find our weather info also at:

European Weather Network

Weather Underground

Equipment we use:

Weather-station
Davis Vue

Weather-program
Meteohub

Weather-server
Raspberry PI 2 B+

Provider
1 and 1

Davis Vue

Meteohub

Raspberry PI 2 B+

1 and 1